sensor_id;sensor_type;location;lat;lon;timestamp;temperature;humidity
55331;DHT22;58851;42.984;20.336;2023-03-01T00:02:01;103.30;6476.80
55331;DHT22;58851;42.984;20.336;2023-03-01T00:04:27;103.30;6476.80
55331;DHT22;58851;42.984;20.336;2023-03-01T00:06:53;103.20;6476.80
55331;DHT22;58851;42.984;20.336;2023-03-01T00:09:19;103.30;230.40
55331;DHT22;58851;42.984;20.336;2023-03-01T00:11:45;103.20;6476.80
55331;DHT22;58851;42.984;20.336;2023-03-01T00:14:11;103.20;435.20
55331;DHT22;58851;42.984;20.336;2023-03-01T00:16:39;103.20;332.80
55331;DHT22;58851;42.984;20.336;2023-03-01T00:19:07;103.30;128.00
55331;DHT22;58851;42.984;20.336;2023-03-01T00:21:33;128.00;6502.40
55331;DHT22;58851;42.984;20.336;2023-03-01T00:24:01;128.00;6502.40
55331;DHT22;58851;42.984;20.336;2023-03-01T00:26:27;128.00;6502.40
55331;DHT22;58851;42.984;20.336;2023-03-01T00:28:54;128.00;128.00
55331;DHT22;58851;42.984;20.336;2023-03-01T00:31:24;128.00;6502.40
55331;DHT22;58851;42.984;20.336;2023-03-01T00:33:53;128.00;6502.40
55331;DHT22;58851;42.984;20.336;2023-03-01T00:36:24;103.30;6476.80
55331;DHT22;58851;42.984;20.336;2023-03-01T00:38:50;103.30;6476.80
55331;DHT22;58851;42.984;20.336;2023-03-01T00:41:17;103.30;6476.80
55331;DHT22;58851;42.984;20.336;2023-03-01T00:43:44;128.10;6502.40
55331;DHT22;58851;42.984;20.336;2023-03-01T00:46:15;128.20;6502.40
55331;DHT22;58851;42.984;20.336;2023-03-01T00:48:41;128.20;6502.40
55331;DHT22;58851;42.984;20.336;2023-03-01T00:53:33;128.20;6502.40
55331;DHT22;58851;42.984;20.336;2023-03-01T00:55:59;128.20;6502.40
55331;DHT22;58851;42.984;20.336;2023-03-01T00:58:26;128.20;6502.40
55331;DHT22;58851;42.984;20.336;2023-03-01T01:00:52;128.00;6502.40
55331;DHT22;58851;42.984;20.336;2023-03-01T01:03:21;103.30;204.80
55331;DHT22;58851;42.984;20.336;2023-03-01T01:05:46;103.30;128.00
55331;DHT22;58851;42.984;20.336;2023-03-01T01:08:12;103.30;128.00
55331;DHT22;58851;42.984;20.336;2023-03-01T01:10:38;128.00;6502.40
55331;DHT22;58851;42.984;20.336;2023-03-01T01:13:04;128.10;6502.40
55331;DHT22;58851;42.984;20.336;2023-03-01T01:15:33;128.00;6502.40
55331;DHT22;58851;42.984;20.336;2023-03-01T01:18:00;128.00;6502.40
55331;DHT22;58851;42.984;20.336;2023-03-01T01:20:26;128.00;6502.40
55331;DHT22;58851;42.984;20.336;2023-03-01T01:22:51;128.10;6502.40
55331;DHT22;58851;42.984;20.336;2023-03-01T01:25:18;128.10;6502.40
55331;DHT22;58851;42.984;20.336;2023-03-01T01:27:44;128.20;6502.40
55331;DHT22;58851;42.984;20.336;2023-03-01T01:30:10;128.10;6502.40
55331;DHT22;58851;42.984;20.336;2023-03-01T01:32:36;128.10;6502.40
55331;DHT22;58851;42.984;20.336;2023-03-01T01:35:02;128.10;6502.40
55331;DHT22;58851;42.984;20.336;2023-03-01T01:37:27;128.00;6502.40
55331;DHT22;58851;42.984;20.336;2023-03-01T01:40:00;128.00;6502.40
55331;DHT22;58851;42.984;20.336;2023-03-01T01:42:26;103.30;6476.80
55331;DHT22;58851;42.984;20.336;2023-03-01T01:45:28;103.30;128.00
55331;DHT22;58851;42.984;20.336;2023-03-01T01:47:57;103.20;665.60
55331;DHT22;58851;42.984;20.336;2023-03-01T01:50:24;103.10;844.80
55331;DHT22;58851;42.984;20.336;2023-03-01T01:52:51;103.00;1536.00
55331;DHT22;58851;42.984;20.336;2023-03-01T01:55:21;102.80;1561.60
55331;DHT22;58851;42.984;20.336;2023-03-01T01:57:54;102.70;2227.20
55331;DHT22;58851;42.984;20.336;2023-03-01T02:00:23;102.50;2227.20
55331;DHT22;58851;42.984;20.336;2023-03-01T02:02:51;102.50;2227.20
55331;DHT22;58851;42.984;20.336;2023-03-01T02:07:56;102.40;2227.20
55331;DHT22;58851;42.984;20.336;2023-03-01T02:10:24;102.50;2227.20
55331;DHT22;58851;42.984;20.336;2023-03-01T02:12:50;102.50;2227.20
55331;DHT22;58851;42.984;20.336;2023-03-01T02:15:17;102.60;2227.20
55331;DHT22;58851;42.984;20.336;2023-03-01T02:17:43;102.50;2227.20
55331;DHT22;58851;42.984;20.336;2023-03-01T02:20:14;102.60;2227.20
55331;DHT22;58851;42.984;20.336;2023-03-01T02:22:43;102.60;2227.20
55331;DHT22;58851;42.984;20.336;2023-03-01T02:30:22;102.90;2227.20
55331;DHT22;58851;42.984;20.336;2023-03-01T02:32:49;103.00;1561.60
55331;DHT22;58851;42.984;20.336;2023-03-01T02:35:16;103.10;1152.00
55331;DHT22;58851;42.984;20.336;2023-03-01T02:37:44;103.00;1536.00
55331;DHT22;58851;42.984;20.336;2023-03-01T02:40:15;103.10;1510.40
55331;DHT22;58851;42.984;20.336;2023-03-01T02:42:57;103.00;2073.60
55331;DHT22;58851;42.984;20.336;2023-03-01T02:45:24;103.00;2227.20
55331;DHT22;58851;42.984;20.336;2023-03-01T02:47:50;102.80;2227.20
55331;DHT22;58851;42.984;20.336;2023-03-01T02:53:15;102.70;2227.20
55331;DHT22;58851;42.984;20.336;2023-03-01T02:55:42;102.60;2227.20
55331;DHT22;58851;42.984;20.336;2023-03-01T02:58:08;102.70;2227.20
55331;DHT22;58851;42.984;20.336;2023-03-01T03:00:40;102.70;2227.20
55331;DHT22;58851;42.984;20.336;2023-03-01T03:03:16;102.70;2227.20
55331;DHT22;58851;42.984;20.336;2023-03-01T03:05:43;102.80;2227.20
55331;DHT22;58851;42.984;20.336;2023-03-01T03:08:09;102.90;2150.40
55331;DHT22;58851;42.984;20.336;2023-03-01T03:10:40;102.90;2099.20
55331;DHT22;58851;42.984;20.336;2023-03-01T03:13:09;103.00;1382.40
55331;DHT22;58851;42.984;20.336;2023-03-01T03:15:35;103.00;1356.80
55331;DHT22;58851;42.984;20.336;2023-03-01T03:18:04;103.20;793.60
55331;DHT22;58851;42.984;20.336;2023-03-01T03:20:30;103.10;409.60
55331;DHT22;58851;42.984;20.336;2023-03-01T03:22:57;103.20;640.00
55331;DHT22;58851;42.984;20.336;2023-03-01T03:25:27;103.20;384.00
55331;DHT22;58851;42.984;20.336;2023-03-01T03:27:54;103.10;537.60
55331;DHT22;58851;42.984;20.336;2023-03-01T03:30:31;103.00;1075.20
55331;DHT22;58851;42.984;20.336;2023-03-01T03:32:58;103.10;716.80
55331;DHT22;58851;42.984;20.336;2023-03-01T03:35:27;103.00;768.00
55331;DHT22;58851;42.984;20.336;2023-03-01T03:37:55;103.20;486.40
55331;DHT22;58851;42.984;20.336;2023-03-01T03:40:34;103.20;512.00
55331;DHT22;58851;42.984;20.336;2023-03-01T03:43:02;103.20;6476.80
55331;DHT22;58851;42.984;20.336;2023-03-01T03:45:28;103.00;460.80
55331;DHT22;58851;42.984;20.336;2023-03-01T03:47:54;103.20;128.00
55331;DHT22;58851;42.984;20.336;2023-03-01T03:50:20;103.20;6476.80
55331;DHT22;58851;42.984;20.336;2023-03-01T03:52:46;128.00;6502.40
55331;DHT22;58851;42.984;20.336;2023-03-01T03:55:12;103.30;6476.80
55331;DHT22;58851;42.984;20.336;2023-03-01T03:57:41;103.30;6476.80
55331;DHT22;58851;42.984;20.336;2023-03-01T04:00:10;103.10;256.00
55331;DHT22;58851;42.984;20.336;2023-03-01T04:02:42;103.20;307.20
55331;DHT22;58851;42.984;20.336;2023-03-01T04:05:09;103.10;128.00
55331;DHT22;58851;42.984;20.336;2023-03-01T04:07:35;103.10;179.20
55331;DHT22;58851;42.984;20.336;2023-03-01T04:10:03;103.10;128.00
55331;DHT22;58851;42.984;20.336;2023-03-01T04:12:29;103.20;6476.80
55331;DHT22;58851;42.984;20.336;2023-03-01T04:14:55;103.10;128.00
55331;DHT22;58851;42.984;20.336;2023-03-01T04:17:20;103.10;332.80
55331;DHT22;58851;42.984;20.336;2023-03-01T04:19:46;103.20;6476.80
55331;DHT22;58851;42.984;20.336;2023-03-01T04:22:14;103.20;6476.80
55331;DHT22;58851;42.984;20.336;2023-03-01T04:24:44;103.20;6476.80
55331;DHT22;58851;42.984;20.336;2023-03-01T04:27:10;103.10;6476.80
55331;DHT22;58851;42.984;20.336;2023-03-01T04:29:36;103.00;435.20
55331;DHT22;58851;42.984;20.336;2023-03-01T04:32:02;103.00;332.80
55331;DHT22;58851;42.984;20.336;2023-03-01T04:34:29;103.10;6476.80
55331;DHT22;58851;42.984;20.336;2023-03-01T04:36:55;103.20;6476.80
55331;DHT22;58851;42.984;20.336;2023-03-01T04:39:21;103.20;6476.80
55331;DHT22;58851;42.984;20.336;2023-03-01T04:41:47;103.10;6476.80
55331;DHT22;58851;42.984;20.336;2023-03-01T04:44:13;103.10;179.20
55331;DHT22;58851;42.984;20.336;2023-03-01T04:46:39;103.00;6476.80
55331;DHT22;58851;42.984;20.336;2023-03-01T04:49:05;102.90;512.00
55331;DHT22;58851;42.984;20.336;2023-03-01T04:51:30;102.90;588.80
55331;DHT22;58851;42.984;20.336;2023-03-01T04:53:58;102.80;1280.00
55331;DHT22;58851;42.984;20.336;2023-03-01T04:56:25;103.00;512.00
55331;DHT22;58851;42.984;20.336;2023-03-01T04:58:53;102.90;512.00
55331;DHT22;58851;42.984;20.336;2023-03-01T05:01:20;102.90;204.80
55331;DHT22;58851;42.984;20.336;2023-03-01T05:03:48;102.80;563.20
55331;DHT22;58851;42.984;20.336;2023-03-01T05:06:15;102.70;1356.80
55331;DHT22;58851;42.984;20.336;2023-03-01T05:08:42;102.90;588.80
55331;DHT22;58851;42.984;20.336;2023-03-01T05:11:09;102.80;307.20
55331;DHT22;58851;42.984;20.336;2023-03-01T05:13:39;102.80;870.40
55331;DHT22;58851;42.984;20.336;2023-03-01T05:16:06;102.80;537.60
55331;DHT22;58851;42.984;20.336;2023-03-01T05:18:33;102.80;435.20
55331;DHT22;58851;42.984;20.336;2023-03-01T05:21:08;102.80;768.00
55331;DHT22;58851;42.984;20.336;2023-03-01T05:23:34;102.80;665.60
55331;DHT22;58851;42.984;20.336;2023-03-01T05:26:02;102.80;1152.00
55331;DHT22;58851;42.984;20.336;2023-03-01T05:28:30;102.90;435.20
55331;DHT22;58851;42.984;20.336;2023-03-01T05:30:56;103.10;128.00
55331;DHT22;58851;42.984;20.336;2023-03-01T05:33:22;102.90;486.40
55331;DHT22;58851;42.984;20.336;2023-03-01T05:35:49;103.00;537.60
55331;DHT22;58851;42.984;20.336;2023-03-01T05:38:15;102.90;998.40
55331;DHT22;58851;42.984;20.336;2023-03-01T05:40:43;102.80;1228.80
55331;DHT22;58851;42.984;20.336;2023-03-01T05:43:09;102.70;1612.80
55331;DHT22;58851;42.984;20.336;2023-03-01T05:45:37;102.80;1561.60
55331;DHT22;58851;42.984;20.336;2023-03-01T05:48:03;102.80;1280.00
55331;DHT22;58851;42.984;20.336;2023-03-01T05:50:34;102.80;1920.00
55331;DHT22;58851;42.984;20.336;2023-03-01T05:55:28;102.80;2227.20
55331;DHT22;58851;42.984;20.336;2023-03-01T05:57:54;102.80;2227.20
55331;DHT22;58851;42.984;20.336;2023-03-01T06:00:21;102.90;1433.60
55331;DHT22;58851;42.984;20.336;2023-03-01T06:02:48;102.80;2022.40
55331;DHT22;58851;42.984;20.336;2023-03-01T06:05:14;102.80;2150.40
55331;DHT22;58851;42.984;20.336;2023-03-01T06:07:41;102.80;2048.00
55331;DHT22;58851;42.984;20.336;2023-03-01T06:10:07;102.80;1510.40
55331;DHT22;58851;42.984;20.336;2023-03-01T06:12:36;102.80;1792.00
55331;DHT22;58851;42.984;20.336;2023-03-01T06:15:03;102.90;1254.40
55331;DHT22;58851;42.984;20.336;2023-03-01T06:17:31;102.80;1382.40
55331;DHT22;58851;42.984;20.336;2023-03-01T06:19:57;102.80;1049.60
55331;DHT22;58851;42.984;20.336;2023-03-01T06:22:23;102.90;921.60
55331;DHT22;58851;42.984;20.336;2023-03-01T06:24:49;102.90;947.20
55331;DHT22;58851;42.984;20.336;2023-03-01T06:27:15;103.00;947.20
55331;DHT22;58851;42.984;20.336;2023-03-01T06:29:41;103.10;537.60
55331;DHT22;58851;42.984;20.336;2023-03-01T06:32:07;103.10;307.20
55331;DHT22;58851;42.984;20.336;2023-03-01T06:34:33;103.10;588.80
55331;DHT22;58851;42.984;20.336;2023-03-01T06:36:59;103.00;691.20
55331;DHT22;58851;42.984;20.336;2023-03-01T06:39:27;103.00;870.40
55331;DHT22;58851;42.984;20.336;2023-03-01T06:41:52;103.00;793.60
55331;DHT22;58851;42.984;20.336;2023-03-01T06:44:18;102.90;1075.20
55331;DHT22;58851;42.984;20.336;2023-03-01T06:46:44;102.90;1766.40
55331;DHT22;58851;42.984;20.336;2023-03-01T06:49:09;103.00;1510.40
55331;DHT22;58851;42.984;20.336;2023-03-01T06:51:36;103.20;921.60
55331;DHT22;58851;42.984;20.336;2023-03-01T06:54:03;128.00;332.80
55331;DHT22;58851;42.984;20.336;2023-03-01T06:56:30;128.10;6502.40
55331;DHT22;58851;42.984;20.336;2023-03-01T06:58:56;103.30;128.00
55331;DHT22;58851;42.984;20.336;2023-03-01T07:01:21;128.10;6502.40
55331;DHT22;58851;42.984;20.336;2023-03-01T07:03:47;128.10;6502.40
55331;DHT22;58851;42.984;20.336;2023-03-01T07:06:13;128.00;6502.40
55331;DHT22;58851;42.984;20.336;2023-03-01T07:08:38;128.00;6502.40
55331;DHT22;58851;42.984;20.336;2023-03-01T07:11:04;128.00;6502.40
55331;DHT22;58851;42.984;20.336;2023-03-01T07:13:31;103.30;6476.80
55331;DHT22;58851;42.984;20.336;2023-03-01T07:15:57;103.30;6476.80
55331;DHT22;58851;42.984;20.336;2023-03-01T07:18:23;103.20;6476.80
55331;DHT22;58851;42.984;20.336;2023-03-01T07:20:48;103.20;6476.80
55331;DHT22;58851;42.984;20.336;2023-03-01T07:23:14;128.00;6502.40
55331;DHT22;58851;42.984;20.336;2023-03-01T07:25:40;128.00;6502.40
55331;DHT22;58851;42.984;20.336;2023-03-01T07:28:06;128.20;6502.40
55331;DHT22;58851;42.984;20.336;2023-03-01T07:30:32;128.20;6502.40
55331;DHT22;58851;42.984;20.336;2023-03-01T07:32:58;128.20;6502.40
55331;DHT22;58851;42.984;20.336;2023-03-01T07:35:27;128.20;6502.40
55331;DHT22;58851;42.984;20.336;2023-03-01T07:37:53;128.10;6502.40
55331;DHT22;58851;42.984;20.336;2023-03-01T07:40:19;128.20;6502.40
55331;DHT22;58851;42.984;20.336;2023-03-01T07:42:45;128.10;6502.40
55331;DHT22;58851;42.984;20.336;2023-03-01T07:45:11;128.10;6502.40
55331;DHT22;58851;42.984;20.336;2023-03-01T07:47:39;128.20;6502.40
55331;DHT22;58851;42.984;20.336;2023-03-01T07:50:05;128.30;6502.40
55331;DHT22;58851;42.984;20.336;2023-03-01T07:52:31;128.40;6502.40
55331;DHT22;58851;42.984;20.336;2023-03-01T07:54:57;128.50;6502.40
55331;DHT22;58851;42.984;20.336;2023-03-01T07:57:23;128.50;6502.40
55331;DHT22;58851;42.984;20.336;2023-03-01T07:59:49;128.60;6502.40
55331;DHT22;58851;42.984;20.336;2023-03-01T08:02:14;128.60;6502.40
55331;DHT22;58851;42.984;20.336;2023-03-01T08:04:41;128.70;6502.40
55331;DHT22;58851;42.984;20.336;2023-03-01T08:07:07;128.80;6502.40
55331;DHT22;58851;42.984;20.336;2023-03-01T08:09:36;153.60;6502.40
55331;DHT22;58851;42.984;20.336;2023-03-01T08:12:03;153.70;6502.40
55331;DHT22;58851;42.984;20.336;2023-03-01T08:14:30;153.80;6502.40
55331;DHT22;58851;42.984;20.336;2023-03-01T08:16:56;153.90;6502.40
55331;DHT22;58851;42.984;20.336;2023-03-01T08:19:23;154.00;6502.40
55331;DHT22;58851;42.984;20.336;2023-03-01T08:21:50;154.10;6502.40
55331;DHT22;58851;42.984;20.336;2023-03-01T08:24:16;154.20;6502.40
55331;DHT22;58851;42.984;20.336;2023-03-01T08:26:42;154.30;6502.40
55331;DHT22;58851;42.984;20.336;2023-03-01T08:29:07;179.20;128.00
55331;DHT22;58851;42.984;20.336;2023-03-01T08:31:35;179.30;6528.00
55331;DHT22;58851;42.984;20.336;2023-03-01T08:34:10;179.50;6502.40
55331;DHT22;58851;42.984;20.336;2023-03-01T08:36:39;179.70;6502.40
55331;DHT22;58851;42.984;20.336;2023-03-01T08:39:06;179.80;6502.40
55331;DHT22;58851;42.984;20.336;2023-03-01T08:41:32;179.90;6502.40
55331;DHT22;58851;42.984;20.336;2023-03-01T08:43:58;179.80;6502.40
55331;DHT22;58851;42.984;20.336;2023-03-01T08:46:33;179.80;6502.40
55331;DHT22;58851;42.984;20.336;2023-03-01T08:48:59;180.00;6502.40
55331;DHT22;58851;42.984;20.336;2023-03-01T08:51:26;180.10;6502.40
55331;DHT22;58851;42.984;20.336;2023-03-01T08:53:52;180.10;6502.40
55331;DHT22;58851;42.984;20.336;2023-03-01T08:56:18;204.80;6502.40
55331;DHT22;58851;42.984;20.336;2023-03-01T08:58:46;204.80;6502.40
55331;DHT22;58851;42.984;20.336;2023-03-01T09:01:14;204.90;6502.40
55331;DHT22;58851;42.984;20.336;2023-03-01T09:03:40;204.90;6502.40
55331;DHT22;58851;42.984;20.336;2023-03-01T09:06:07;205.00;6502.40
55331;DHT22;58851;42.984;20.336;2023-03-01T09:08:38;204.90;6502.40
55331;DHT22;58851;42.984;20.336;2023-03-01T09:11:05;205.20;6502.40
55331;DHT22;58851;42.984;20.336;2023-03-01T09:13:32;205.20;6502.40
55331;DHT22;58851;42.984;20.336;2023-03-01T09:15:59;205.20;6502.40
55331;DHT22;58851;42.984;20.336;2023-03-01T09:18:25;205.20;6502.40
55331;DHT22;58851;42.984;20.336;2023-03-01T09:20:51;205.30;6502.40
55331;DHT22;58851;42.984;20.336;2023-03-01T09:23:17;205.40;6502.40
55331;DHT22;58851;42.984;20.336;2023-03-01T09:25:43;205.50;6502.40
55331;DHT22;58851;42.984;20.336;2023-03-01T09:28:08;205.60;6502.40
55331;DHT22;58851;42.984;20.336;2023-03-01T09:30:36;205.60;6502.40
55331;DHT22;58851;42.984;20.336;2023-03-01T09:33:02;205.60;6502.40
55331;DHT22;58851;42.984;20.336;2023-03-01T09:35:27;230.40;6502.40
55331;DHT22;58851;42.984;20.336;2023-03-01T09:37:53;230.50;6502.40
55331;DHT22;58851;42.984;20.336;2023-03-01T09:40:21;230.50;6502.40
55331;DHT22;58851;42.984;20.336;2023-03-01T09:47:52;205.70;6502.40
55331;DHT22;58851;42.984;20.336;2023-03-01T09:50:20;205.60;6502.40
55331;DHT22;58851;42.984;20.336;2023-03-01T09:53:02;205.50;6502.40
55331;DHT22;58851;42.984;20.336;2023-03-01T10:00:40;205.30;6502.40
55331;DHT22;58851;42.984;20.336;2023-03-01T10:03:21;205.10;6502.40
55331;DHT22;58851;42.984;20.336;2023-03-01T10:08:54;205.20;6502.40
55331;DHT22;58851;42.984;20.336;2023-03-01T10:11:30;205.20;6502.40
55331;DHT22;58851;42.984;20.336;2023-03-01T10:16:54;205.40;6502.40
55331;DHT22;58851;42.984;20.336;2023-03-01T10:22:15;230.50;6502.40
55331;DHT22;58851;42.984;20.336;2023-03-01T10:24:41;230.50;6502.40
55331;DHT22;58851;42.984;20.336;2023-03-01T10:29:58;230.90;6502.40
55331;DHT22;58851;42.984;20.336;2023-03-01T10:32:26;231.00;6502.40
55331;DHT22;58851;42.984;20.336;2023-03-01T10:34:52;231.20;6502.40
55331;DHT22;58851;42.984;20.336;2023-03-01T10:37:20;231.30;6502.40
55331;DHT22;58851;42.984;20.336;2023-03-01T10:42:46;256.50;6502.40
55331;DHT22;58851;42.984;20.336;2023-03-01T10:45:39;256.70;6502.40
55331;DHT22;58851;42.984;20.336;2023-03-01T10:48:17;256.60;6502.40
55331;DHT22;58851;42.984;20.336;2023-03-01T10:53:42;256.30;6502.40
55331;DHT22;58851;42.984;20.336;2023-03-01T10:56:13;256.50;6502.40
55331;DHT22;58851;42.984;20.336;2023-03-01T10:58:56;256.70;6502.40
55331;DHT22;58851;42.984;20.336;2023-03-01T11:06:32;256.80;6502.40
55331;DHT22;58851;42.984;20.336;2023-03-01T11:09:22;256.80;6502.40
55331;DHT22;58851;42.984;20.336;2023-03-01T11:11:56;256.80;6502.40
55331;DHT22;58851;42.984;20.336;2023-03-01T11:14:30;256.80;6502.40
55331;DHT22;58851;42.984;20.336;2023-03-01T11:17:05;256.70;6502.40
55331;DHT22;58851;42.984;20.336;2023-03-01T11:19:32;256.60;6502.40
55331;DHT22;58851;42.984;20.336;2023-03-01T11:22:17;256.70;6502.40
55331;DHT22;58851;42.984;20.336;2023-03-01T11:24:51;256.70;6502.40
55331;DHT22;58851;42.984;20.336;2023-03-01T11:30:28;256.90;6502.40
55331;DHT22;58851;42.984;20.336;2023-03-01T11:35:27;256.90;6502.40
55331;DHT22;58851;42.984;20.336;2023-03-01T11:38:16;281.70;6528.00
55331;DHT22;58851;42.984;20.336;2023-03-01T11:41:00;281.80;6528.00
55331;DHT22;58851;42.984;20.336;2023-03-01T11:58:19;281.80;6528.00
55331;DHT22;58851;42.984;20.336;2023-03-01T12:09:30;281.70;6528.00
55331;DHT22;58851;42.984;20.336;2023-03-01T12:22:31;282.00;6528.00
55331;DHT22;58851;42.984;20.336;2023-03-01T12:44:33;256.60;6502.40
55331;DHT22;58851;42.984;20.336;2023-03-01T12:50:16;256.50;6502.40
55331;DHT22;58851;42.984;20.336;2023-03-01T12:52:49;256.60;6502.40
55331;DHT22;58851;42.984;20.336;2023-03-01T12:55:36;256.50;6502.40
55331;DHT22;58851;42.984;20.336;2023-03-01T12:58:23;256.40;6502.40
55331;DHT22;58851;42.984;20.336;2023-03-01T13:09:31;256.50;6502.40
55331;DHT22;58851;42.984;20.336;2023-03-01T13:12:00;256.50;6502.40
55331;DHT22;58851;42.984;20.336;2023-03-01T13:16:55;256.20;6502.40
55331;DHT22;58851;42.984;20.336;2023-03-01T13:21:50;256.10;6502.40
55331;DHT22;58851;42.984;20.336;2023-03-01T13:24:43;256.10;6502.40
55331;DHT22;58851;42.984;20.336;2023-03-01T13:27:22;256.00;6502.40
55331;DHT22;58851;42.984;20.336;2023-03-01T13:29:59;231.20;6502.40
55331;DHT22;58851;42.984;20.336;2023-03-01T13:32:33;231.30;6502.40
55331;DHT22;58851;42.984;20.336;2023-03-01T13:35:00;231.20;6502.40
55331;DHT22;58851;42.984;20.336;2023-03-01T13:37:32;231.30;6502.40
55331;DHT22;58851;42.984;20.336;2023-03-01T13:40:04;231.20;6502.40
55331;DHT22;58851;42.984;20.336;2023-03-01T13:42:34;231.30;6502.40
55331;DHT22;58851;42.984;20.336;2023-03-01T13:45:04;256.00;6502.40
55331;DHT22;58851;42.984;20.336;2023-03-01T13:47:33;231.30;6502.40
55331;DHT22;58851;42.984;20.336;2023-03-01T13:50:01;231.10;6502.40
55331;DHT22;58851;42.984;20.336;2023-03-01T13:52:40;231.10;6502.40
55331;DHT22;58851;42.984;20.336;2023-03-01T13:57:40;230.90;6502.40
55331;DHT22;58851;42.984;20.336;2023-03-01T14:00:30;230.80;6502.40
55331;DHT22;58851;42.984;20.336;2023-03-01T14:03:11;230.80;6502.40
55331;DHT22;58851;42.984;20.336;2023-03-01T14:05:38;230.70;6502.40
55331;DHT22;58851;42.984;20.336;2023-03-01T14:08:14;230.80;6502.40
55331;DHT22;58851;42.984;20.336;2023-03-01T14:14:12;230.60;6502.40
55331;DHT22;58851;42.984;20.336;2023-03-01T14:19:36;230.60;6502.40
55331;DHT22;58851;42.984;20.336;2023-03-01T14:22:19;230.70;6502.40
55331;DHT22;58851;42.984;20.336;2023-03-01T14:24:54;230.60;6502.40
55331;DHT22;58851;42.984;20.336;2023-03-01T14:27:20;230.60;6502.40
55331;DHT22;58851;42.984;20.336;2023-03-01T14:29:57;230.70;6502.40
55331;DHT22;58851;42.984;20.336;2023-03-01T14:32:31;230.60;6502.40
55331;DHT22;58851;42.984;20.336;2023-03-01T14:34:58;230.50;6502.40
55331;DHT22;58851;42.984;20.336;2023-03-01T14:37:28;230.40;6502.40
55331;DHT22;58851;42.984;20.336;2023-03-01T14:39:56;230.40;6502.40
55331;DHT22;58851;42.984;20.336;2023-03-01T14:42:24;230.50;6502.40
55331;DHT22;58851;42.984;20.336;2023-03-01T14:44:53;230.60;6502.40
55331;DHT22;58851;42.984;20.336;2023-03-01T14:47:37;230.60;6502.40
55331;DHT22;58851;42.984;20.336;2023-03-01T14:50:07;230.50;6502.40
55331;DHT22;58851;42.984;20.336;2023-03-01T14:52:39;230.50;128.00
55331;DHT22;58851;42.984;20.336;2023-03-01T14:55:12;230.40;307.20
55331;DHT22;58851;42.984;20.336;2023-03-01T14:57:44;205.70;384.00
55331;DHT22;58851;42.984;20.336;2023-03-01T15:00:21;205.70;537.60
55331;DHT22;58851;42.984;20.336;2023-03-01T15:02:50;205.60;6502.40
55331;DHT22;58851;42.984;20.336;2023-03-01T15:05:39;205.60;6502.40
55331;DHT22;58851;42.984;20.336;2023-03-01T15:08:04;205.60;6502.40
55331;DHT22;58851;42.984;20.336;2023-03-01T15:10:33;205.60;6502.40
55331;DHT22;58851;42.984;20.336;2023-03-01T15:13:21;205.50;6502.40
55331;DHT22;58851;42.984;20.336;2023-03-01T15:15:49;205.50;6502.40
55331;DHT22;58851;42.984;20.336;2023-03-01T15:18:22;205.50;6502.40
55331;DHT22;58851;42.984;20.336;2023-03-01T15:20:51;205.60;6502.40
55331;DHT22;58851;42.984;20.336;2023-03-01T15:23:28;205.60;6502.40
55331;DHT22;58851;42.984;20.336;2023-03-01T15:25:55;205.60;6502.40
55331;DHT22;58851;42.984;20.336;2023-03-01T15:28:33;205.50;6502.40
55331;DHT22;58851;42.984;20.336;2023-03-01T15:31:22;205.50;6502.40
55331;DHT22;58851;42.984;20.336;2023-03-01T15:33:48;205.40;6502.40
55331;DHT22;58851;42.984;20.336;2023-03-01T15:38:59;205.30;6502.40
55331;DHT22;58851;42.984;20.336;2023-03-01T15:41:37;205.40;6502.40
55331;DHT22;58851;42.984;20.336;2023-03-01T15:44:26;205.30;6502.40
55331;DHT22;58851;42.984;20.336;2023-03-01T15:46:53;205.30;6502.40
55331;DHT22;58851;42.984;20.336;2023-03-01T15:49:41;205.40;6502.40
55331;DHT22;58851;42.984;20.336;2023-03-01T15:52:24;205.40;6502.40
55331;DHT22;58851;42.984;20.336;2023-03-01T15:55:03;205.40;6502.40
55331;DHT22;58851;42.984;20.336;2023-03-01T15:57:29;205.30;6502.40
55331;DHT22;58851;42.984;20.336;2023-03-01T15:59:55;205.30;6502.40
55331;DHT22;58851;42.984;20.336;2023-03-01T16:02:23;205.30;6502.40
55331;DHT22;58851;42.984;20.336;2023-03-01T16:04:50;205.30;6502.40
55331;DHT22;58851;42.984;20.336;2023-03-01T16:07:16;205.30;6502.40
55331;DHT22;58851;42.984;20.336;2023-03-01T16:09:42;205.30;6502.40
55331;DHT22;58851;42.984;20.336;2023-03-01T16:12:14;205.30;6502.40
55331;DHT22;58851;42.984;20.336;2023-03-01T16:14:40;205.30;6502.40
55331;DHT22;58851;42.984;20.336;2023-03-01T16:17:06;205.20;6502.40
55331;DHT22;58851;42.984;20.336;2023-03-01T16:19:36;205.10;6502.40
55331;DHT22;58851;42.984;20.336;2023-03-01T16:22:03;205.10;6502.40
55331;DHT22;58851;42.984;20.336;2023-03-01T16:24:29;205.10;6502.40
55331;DHT22;58851;42.984;20.336;2023-03-01T16:26:55;205.10;6502.40
55331;DHT22;58851;42.984;20.336;2023-03-01T16:29:21;205.00;6502.40
55331;DHT22;58851;42.984;20.336;2023-03-01T16:31:46;205.00;6502.40
55331;DHT22;58851;42.984;20.336;2023-03-01T16:34:13;205.00;6502.40
55331;DHT22;58851;42.984;20.336;2023-03-01T16:36:38;205.00;6502.40
55331;DHT22;58851;42.984;20.336;2023-03-01T16:39:04;205.00;6502.40
55331;DHT22;58851;42.984;20.336;2023-03-01T16:41:32;204.90;6502.40
55331;DHT22;58851;42.984;20.336;2023-03-01T16:43:57;204.90;6502.40
55331;DHT22;58851;42.984;20.336;2023-03-01T16:46:25;205.00;6502.40
55331;DHT22;58851;42.984;20.336;2023-03-01T16:48:52;204.90;6502.40
55331;DHT22;58851;42.984;20.336;2023-03-01T16:51:18;204.90;6502.40
55331;DHT22;58851;42.984;20.336;2023-03-01T16:53:45;204.90;6502.40
55331;DHT22;58851;42.984;20.336;2023-03-01T16:56:13;204.90;6502.40
55331;DHT22;58851;42.984;20.336;2023-03-01T16:58:39;204.90;6502.40
55331;DHT22;58851;42.984;20.336;2023-03-01T17:01:18;205.00;6502.40
55331;DHT22;58851;42.984;20.336;2023-03-01T17:03:45;204.90;6502.40
55331;DHT22;58851;42.984;20.336;2023-03-01T17:06:14;204.90;6502.40